Time;durP1;ratioP1;P1;durP2;ratioP2;P2;SDS_P1;SDS_P2;PMS_P1;PMS_P2;Temp;Humidity;BMP_temperature;BMP_pressure;BME280_temperature;BME280_humidity;BME280_pressure;Samples;Min_cycle;Max_cycle;Signal;HPM_P1;HPM_P2
2024/02/13 00:00:12;;;;;;;9.85;3.80;;;;;;;;;;10253022;28;20076;-64
2024/02/13 00:05:11;;;;;;;11.30;4.57;;;;;;;;;;10266831;28;20485;-64
2024/02/13 00:10:12;;;;;;;7.07;4.40;;;;;;;;;;10251301;28;20076;-64
2024/02/13 00:15:14;;;;;;;6.82;4.38;;;;;;;;;;10249873;28;20088;-62
2024/02/13 00:20:14;;;;;;;11.55;5.80;;;;;;;;;;10251150;28;20083;-63
2024/02/13 00:25:12;;;;;;;11.60;6.47;;;;;;;;;;10250327;28;20072;-63
2024/02/13 00:30:14;;;;;;;9.20;6.95;;;;;;;;;;10256062;28;20079;-63
2024/02/13 00:35:13;;;;;;;10.30;6.00;;;;;;;;;;10253262;28;20081;-63
2024/02/13 00:40:11;;;;;;;13.68;8.45;;;;;;;;;;10249747;28;20494;-63
2024/02/13 00:45:10;;;;;;;12.32;9.10;;;;;;;;;;10244671;28;20079;-63
2024/02/13 00:50:10;;;;;;;14.10;8.52;;;;;;;;;;10252488;28;20072;-63
2024/02/13 00:55:09;;;;;;;11.20;8.88;;;;;;;;;;10250728;28;20108;-64
2024/02/13 01:00:10;;;;;;;12.25;8.43;;;;;;;;;;10250090;28;20077;-63
2024/02/13 01:05:09;;;;;;;11.45;9.48;;;;;;;;;;10251697;28;20073;-63
2024/02/13 01:10:09;;;;;;;10.88;8.73;;;;;;;;;;10249448;28;20087;-63
2024/02/13 01:15:08;;;;;;;12.75;8.95;;;;;;;;;;10246499;28;20069;-63
2024/02/13 01:20:10;;;;;;;9.32;8.00;;;;;;;;;;10248637;28;20072;-63
2024/02/13 01:25:13;;;;;;;10.50;8.10;;;;;;;;;;10247679;28;20091;-63
2024/02/13 01:30:13;;;;;;;12.68;7.78;;;;;;;;;;10253619;28;20072;-63
2024/02/13 01:35:13;;;;;;;9.02;7.85;;;;;;;;;;10243471;28;20083;-63
2024/02/13 01:40:16;;;;;;;8.88;7.57;;;;;;;;;;10247328;28;20651;-63
2024/02/13 01:45:14;;;;;;;9.80;8.68;;;;;;;;;;10247630;28;20068;-63
2024/02/13 01:50:14;;;;;;;9.95;8.15;;;;;;;;;;10246904;28;20069;-64
2024/02/13 01:55:16;;;;;;;10.25;7.68;;;;;;;;;;10248266;28;20503;-63
2024/02/13 02:00:14;;;;;;;12.60;7.60;;;;;;;;;;10249010;28;20081;-64
2024/02/13 02:05:13;;;;;;;14.02;7.63;;;;;;;;;;10247280;28;20076;-62
2024/02/13 02:10:14;;;;;;;11.00;8.30;;;;;;;;;;10247330;28;20072;-62
2024/02/13 02:15:13;;;;;;;11.75;10.27;;;;;;;;;;10246573;28;20084;-63
2024/02/13 02:20:12;;;;;;;13.52;9.63;;;;;;;;;;10246016;28;20081;-62
2024/02/13 02:25:13;;;;;;;11.75;9.38;;;;;;;;;;10244049;28;20080;-63
2024/02/13 02:30:13;;;;;;;10.02;8.82;;;;;;;;;;10247442;28;20081;-63
2024/02/13 02:35:11;;;;;;;10.25;8.57;;;;;;;;;;10250306;28;20578;-63
2024/02/13 02:40:10;;;;;;;10.15;9.10;;;;;;;;;;10246255;28;20089;-63
2024/02/13 02:45:10;;;;;;;10.57;9.13;;;;;;;;;;10249981;28;20107;-63
2024/02/13 02:50:10;;;;;;;11.05;9.57;;;;;;;;;;10245874;28;20084;-63
2024/02/13 02:55:08;;;;;;;12.57;10.05;;;;;;;;;;10244770;28;20514;-64
2024/02/13 03:00:09;;;;;;;11.40;10.20;;;;;;;;;;10245159;28;20088;-63
2024/02/13 03:05:10;;;;;;;13.13;11.82;;;;;;;;;;10246216;28;20064;-61
2024/02/13 03:10:10;;;;;;;14.63;13.13;;;;;;;;;;10250155;28;20064;-63
2024/02/13 03:15:09;;;;;;;14.57;11.38;;;;;;;;;;10252273;28;20522;-63
2024/02/13 03:20:10;;;;;;;12.90;11.68;;;;;;;;;;10254660;28;20080;-63
2024/02/13 03:25:09;;;;;;;16.85;12.23;;;;;;;;;;10253844;28;20178;-63
2024/02/13 03:30:10;;;;;;;14.73;12.85;;;;;;;;;;10251785;28;20064;-63
2024/02/13 03:35:09;;;;;;;15.00;10.10;;;;;;;;;;10252459;28;20084;-63
2024/02/13 03:40:09;;;;;;;12.30;11.00;;;;;;;;;;10254566;28;20115;-64
2024/02/13 03:45:08;;;;;;;14.20;12.73;;;;;;;;;;10253323;28;20088;-64
2024/02/13 03:50:07;;;;;;;14.00;12.60;;;;;;;;;;10251989;28;20080;-63
2024/02/13 03:55:07;;;;;;;13.95;12.50;;;;;;;;;;10250740;28;20073;-64
2024/02/13 04:00:07;;;;;;;13.90;12.48;;;;;;;;;;10249582;28;20083;-64
2024/02/13 04:05:06;;;;;;;14.70;11.18;;;;;;;;;;10252524;28;20081;-64
2024/02/13 04:10:05;;;;;;;11.18;10.07;;;;;;;;;;10254524;28;20115;-64
2024/02/13 04:15:05;;;;;;;14.35;10.75;;;;;;;;;;10253755;28;20088;-64
2024/02/13 04:20:04;;;;;;;11.63;10.48;;;;;;;;;;10252534;28;20522;-63
2024/02/13 04:25:03;;;;;;;12.25;10.95;;;;;;;;;;10250108;28;20088;-63
2024/02/13 04:30:02;;;;;;;11.85;10.60;;;;;;;;;;10251137;28;20076;-63
2024/02/13 04:35:03;;;;;;;18.88;17.02;;;;;;;;;;10256370;28;20489;-63
2024/02/13 04:40:01;;;;;;;12.35;10.63;;;;;;;;;;10257361;28;20558;-64
2024/02/13 04:45:00;;;;;;;11.73;10.52;;;;;;;;;;10262294;28;20080;-64
2024/02/13 04:49:59;;;;;;;15.63;11.55;;;;;;;;;;10256129;28;20097;-64
2024/02/13 04:54:59;;;;;;;10.20;9.18;;;;;;;;;;10253412;28;20065;-64
2024/02/13 05:00:01;;;;;;;9.80;8.80;;;;;;;;;;10252539;28;20487;-64
2024/02/13 05:10:17;;;;;;;13.65;12.35;;;;;;;;;;10251428;28;20087;-64
2024/02/13 05:15:17;;;;;;;11.85;10.65;;;;;;;;;;10254760;28;20079;-64
2024/02/13 05:20:15;;;;;;;9.90;8.63;;;;;;;;;;10242929;28;20530;-62
2024/02/13 05:25:13;;;;;;;8.82;7.93;;;;;;;;;;10250527;28;20084;-63
2024/02/13 05:30:15;;;;;;;8.38;7.57;;;;;;;;;;10249463;28;20065;-63
2024/02/13 05:35:13;;;;;;;8.80;7.85;;;;;;;;;;10248170;28;20069;-63
2024/02/13 05:40:12;;;;;;;8.77;7.90;;;;;;;;;;10245264;28;20081;-62
2024/02/13 05:45:10;;;;;;;12.90;11.60;;;;;;;;;;10244819;28;20068;-62
2024/02/13 05:50:12;;;;;;;12.38;11.18;;;;;;;;;;10239101;28;20072;-62
2024/02/13 05:55:11;;;;;;;19.27;17.35;;;;;;;;;;10240265;28;20610;-62
2024/02/13 06:00:14;;;;;;;14.38;12.98;;;;;;;;;;10256232;28;20517;-62
2024/02/13 06:05:15;;;;;;;11.03;9.93;;;;;;;;;;10274476;28;20072;-63
2024/02/13 06:10:14;;;;;;;12.57;8.68;;;;;;;;;;10256383;28;20065;-64
2024/02/13 06:15:12;;;;;;;9.48;8.57;;;;;;;;;;10249353;28;20072;-63
2024/02/13 06:20:12;;;;;;;11.18;9.20;;;;;;;;;;10248012;28;20088;-64
2024/02/13 06:25:12;;;;;;;9.60;8.70;;;;;;;;;;10249405;28;20084;-63
2024/02/13 06:30:12;;;;;;;10.95;9.85;;;;;;;;;;10252249;28;20069;-63
2024/02/13 06:35:11;;;;;;;10.45;8.82;;;;;;;;;;10248463;28;20100;-63
2024/02/13 06:40:10;;;;;;;10.05;9.05;;;;;;;;;;10244250;28;20081;-63
2024/02/13 06:45:10;;;;;;;12.57;9.25;;;;;;;;;;10249741;28;20076;-63
2024/02/13 06:50:11;;;;;;;7.90;7.20;;;;;;;;;;10255037;28;20076;-63
2024/02/13 06:55:11;;;;;;;12.25;10.95;;;;;;;;;;10259135;28;20073;-63
2024/02/13 07:00:13;;;;;;;8.32;7.47;;;;;;;;;;10255159;28;20081;-63
2024/02/13 07:05:12;;;;;;;8.27;7.47;;;;;;;;;;10258177;28;20459;-63
2024/02/13 07:10:11;;;;;;;9.02;7.13;;;;;;;;;;10254085;28;20080;-63
2024/02/13 07:15:11;;;;;;;8.88;7.97;;;;;;;;;;10254602;28;20478;-64
2024/02/13 07:20:11;;;;;;;9.45;8.50;;;;;;;;;;10258361;28;20661;-62
2024/02/13 07:25:10;;;;;;;10.75;6.82;;;;;;;;;;10253536;28;20076;-63
2024/02/13 07:30:10;;;;;;;9.85;8.40;;;;;;;;;;10252714;28;20102;-63
2024/02/13 07:35:10;;;;;;;9.13;8.25;;;;;;;;;;10254275;28;20080;-63
2024/02/13 07:40:09;;;;;;;6.57;5.97;;;;;;;;;;10252414;28;20545;-63
2024/02/13 07:45:08;;;;;;;8.75;7.43;;;;;;;;;;10257861;28;20126;-61
2024/02/13 07:50:07;;;;;;;6.85;6.25;;;;;;;;;;10261514;28;20103;-63
2024/02/13 07:55:08;;;;;;;5.40;4.90;;;;;;;;;;10256037;28;20104;-63
2024/02/13 08:00:08;;;;;;;6.05;5.55;;;;;;;;;;10250958;28;20529;-62
2024/02/13 08:05:07;;;;;;;9.35;5.47;;;;;;;;;;10256962;28;20487;-63
2024/02/13 08:10:10;;;;;;;8.52;5.00;;;;;;;;;;10258491;28;20085;-65
2024/02/13 08:15:09;;;;;;;6.50;5.90;;;;;;;;;;10255592;28;20073;-62
2024/02/13 08:20:08;;;;;;;6.60;5.65;;;;;;;;;;10251027;28;20085;-61
2024/02/13 08:25:09;;;;;;;6.85;6.25;;;;;;;;;;10255846;28;20080;-61
2024/02/13 08:30:10;;;;;;;7.68;6.32;;;;;;;;;;10255683;28;20077;-62
2024/02/13 08:35:12;;;;;;;7.97;7.18;;;;;;;;;;10258156;28;20080;-62
2024/02/13 08:40:14;;;;;;;8.93;8.07;;;;;;;;;;10253683;28;20088;-61
2024/02/13 08:45:13;;;;;;;6.85;6.25;;;;;;;;;;10254511;28;20088;-62
2024/02/13 08:50:12;;;;;;;12.95;9.27;;;;;;;;;;10259155;28;20526;-62
2024/02/13 08:55:13;;;;;;;9.43;7.75;;;;;;;;;;10256595;28;20080;-63
2024/02/13 09:00:15;;;;;;;5.95;5.45;;;;;;;;;;10253993;28;20079;-61
2024/02/13 09:05:14;;;;;;;10.27;6.95;;;;;;;;;;10256426;28;20069;-63
2024/02/13 09:10:14;;;;;;;8.30;5.90;;;;;;;;;;10251903;28;20149;-62
2024/02/13 09:15:13;;;;;;;10.43;7.97;;;;;;;;;;10254732;28;20509;-62
2024/02/13 09:20:14;;;;;;;14.52;9.38;;;;;;;;;;10253678;28;20076;-62
2024/02/13 09:25:16;;;;;;;11.75;8.88;;;;;;;;;;10259422;28;20096;-62
2024/02/13 09:30:14;;;;;;;7.72;7.00;;;;;;;;;;10256869;28;20087;-62
2024/02/13 09:35:13;;;;;;;9.02;7.88;;;;;;;;;;10254160;28;20095;-63
2024/02/13 09:40:14;;;;;;;12.98;7.13;;;;;;;;;;10254940;28;20076;-63
2024/02/13 09:45:15;;;;;;;7.60;6.90;;;;;;;;;;10256532;28;20481;-63
2024/02/13 09:50:14;;;;;;;10.02;6.53;;;;;;;;;;10258479;28;20088;-63
2024/02/13 09:55:13;;;;;;;8.38;7.28;;;;;;;;;;10257412;28;20152;-63
2024/02/13 10:00:16;;;;;;;13.77;9.52;;;;;;;;;;10254488;28;20533;-62
2024/02/13 10:05:15;;;;;;;9.07;7.10;;;;;;;;;;10253733;28;20068;-62
2024/02/13 10:10:15;;;;;;;8.05;7.35;;;;;;;;;;10253114;28;20061;-63
2024/02/13 10:15:15;;;;;;;15.48;8.98;;;;;;;;;;10253576;28;20084;-63
2024/02/13 10:20:17;;;;;;;18.08;10.75;;;;;;;;;;10255413;28;20088;-62
2024/02/13 10:25:18;;;;;;;9.57;8.05;;;;;;;;;;10252738;28;20523;-62
2024/02/13 10:30:23;;;;;;;12.25;9.18;;;;;;;;;;10258621;28;20091;-62
2024/02/13 10:35:22;;;;;;;10.75;9.75;;;;;;;;;;10255533;28;20073;-62
2024/02/13 10:40:22;;;;;;;11.13;7.93;;;;;;;;;;10251673;28;20080;-62
2024/02/13 10:45:24;;;;;;;9.45;8.55;;;;;;;;;;10252868;28;20079;-62
2024/02/13 10:50:23;;;;;;;14.57;11.07;;;;;;;;;;10243355;28;20111;-62
2024/02/13 10:55:21;;;;;;;9.25;8.40;;;;;;;;;;10247371;28;20494;-62
2024/02/13 11:00:20;;;;;;;14.60;11.65;;;;;;;;;;10251823;28;20076;-62
2024/02/13 11:05:23;;;;;;;9.70;8.85;;;;;;;;;;10255486;28;20087;-63
2024/02/13 11:10:29;;;;;;;11.38;9.52;;;;;;;;;;10249869;28;20076;-62
2024/02/13 11:15:28;;;;;;;9.32;8.52;;;;;;;;;;10247534;28;20073;-62
2024/02/13 11:20:28;;;;;;;9.77;8.35;;;;;;;;;;10250329;28;20060;-62
2024/02/13 11:25:28;;;;;;;11.38;10.23;;;;;;;;;;10250554;28;20092;-64
2024/02/13 11:30:28;;;;;;;10.63;9.55;;;;;;;;;;10253844;28;20095;-64
2024/02/13 11:35:31;;;;;;;13.43;12.13;;;;;;;;;;10255539;28;20073;-64
2024/02/13 11:40:30;;;;;;;10.25;9.07;;;;;;;;;;10254808;28;20167;-63
2024/02/13 11:45:28;;;;;;;11.43;10.20;;;;;;;;;;10255429;28;20083;-64
2024/02/13 11:50:28;;;;;;;9.38;8.48;;;;;;;;;;10255402;28;20080;-63
2024/02/13 11:55:31;;;;;;;13.18;11.70;;;;;;;;;;10255166;28;20076;-63
2024/02/13 12:00:29;;;;;;;9.27;8.38;;;;;;;;;;10257203;28;20451;-64
2024/02/13 12:05:28;;;;;;;8.70;7.97;;;;;;;;;;10257768;28;20079;-63
2024/02/13 12:10:28;;;;;;;8.15;7.35;;;;;;;;;;10259632;28;20107;-63
2024/02/13 12:15:27;;;;;;;8.95;8.15;;;;;;;;;;10255059;28;20073;-62
2024/02/13 12:20:28;;;;;;;10.02;9.07;;;;;;;;;;10258102;28;20076;-62
2024/02/13 12:25:30;;;;;;;9.20;8.38;;;;;;;;;;10257366;28;20079;-63
2024/02/13 12:30:29;;;;;;;10.00;9.10;;;;;;;;;;10252718;28;20077;-63
2024/02/13 12:35:33;;;;;;;12.98;11.82;;;;;;;;;;10257191;28;20083;-63
2024/02/13 12:40:34;;;;;;;10.90;9.85;;;;;;;;;;10254903;28;20483;-63
2024/02/13 12:45:41;;;;;;;11.88;10.77;;;;;;;;;;10255488;28;20215;-61
2024/02/13 12:50:41;;;;;;;9.70;8.25;;;;;;;;;;10258589;28;20080;-62
2024/02/13 12:55:42;;;;;;;24.38;21.88;;;;;;;;;;10253254;28;20069;-61
2024/02/13 13:00:45;;;;;;;12.27;11.15;;;;;;;;;;10253527;28;20113;-63
2024/02/13 13:05:44;;;;;;;8.80;7.13;;;;;;;;;;10256726;28;20075;-61
2024/02/13 13:10:44;;;;;;;17.42;12.32;;;;;;;;;;10253186;28;20072;-62
2024/02/13 13:15:42;;;;;;;11.93;9.68;;;;;;;;;;10252710;28;20076;-63
2024/02/13 13:20:40;;;;;;;9.57;8.65;;;;;;;;;;10250397;28;20079;-63
2024/02/13 13:25:40;;;;;;;9.98;9.07;;;;;;;;;;10247748;28;20506;-63
2024/02/13 13:30:40;;;;;;;11.35;10.25;;;;;;;;;;10251924;28;20069;-62
2024/02/13 13:35:40;;;;;;;13.02;10.38;;;;;;;;;;10249682;28;20080;-62
2024/02/13 13:40:39;;;;;;;9.65;8.85;;;;;;;;;;10251144;28;20480;-63
2024/02/13 13:45:51;;;;;;;13.40;11.25;;;;;;;;;;10250481;28;20562;-62
2024/02/13 13:50:50;;;;;;;19.17;15.02;;;;;;;;;;10248917;28;20076;-63
2024/02/13 13:55:48;;;;;;;14.38;12.82;;;;;;;;;;10250286;28;20064;-61
2024/02/13 14:00:49;;;;;;;12.43;11.18;;;;;;;;;;10251314;28;20080;-63
2024/02/13 14:05:49;;;;;;;13.00;11.70;;;;;;;;;;10247694;28;20542;-62
2024/02/13 14:10:48;;;;;;;11.85;10.75;;;;;;;;;;10253691;28;20479;-63
2024/02/13 14:15:49;;;;;;;15.95;14.43;;;;;;;;;;10249127;28;20077;-62
2024/02/13 14:20:47;;;;;;;17.00;15.32;;;;;;;;;;10253168;28;20084;-63
2024/02/13 14:25:46;;;;;;;14.77;13.32;;;;;;;;;;10251380;28;20084;-62
2024/02/13 14:30:44;;;;;;;17.05;15.25;;;;;;;;;;10249896;28;20075;-63
2024/02/13 14:35:46;;;;;;;19.90;18.00;;;;;;;;;;10249068;28;20079;-61
2024/02/13 14:40:45;;;;;;;36.22;24.38;;;;;;;;;;10246016;28;20561;-64
2024/02/13 14:45:45;;;;;;;24.30;21.42;;;;;;;;;;10249342;28;20090;-63
2024/02/13 14:50:46;;;;;;;22.23;16.48;;;;;;;;;;10249754;28;20069;-63
2024/02/13 14:55:45;;;;;;;43.50;29.55;;;;;;;;;;10252577;28;20073;-64
2024/02/13 15:00:49;;;;;;;16.77;15.05;;;;;;;;;;10250232;28;20080;-62
2024/02/13 15:05:49;;;;;;;44.30;31.23;;;;;;;;;;10249202;28;20104;-63
2024/02/13 15:10:48;;;;;;;31.13;23.13;;;;;;;;;;10256240;28;20069;-64
2024/02/13 15:15:48;;;;;;;53.35;41.60;;;;;;;;;;10252955;28;20072;-62
2024/02/13 15:20:47;;;;;;;69.85;50.03;;;;;;;;;;10256831;28;20091;-63
2024/02/13 15:25:47;;;;;;;33.80;28.02;;;;;;;;;;10259338;28;20078;-63
2024/02/13 15:30:46;;;;;;;16.75;14.82;;;;;;;;;;10251046;28;20080;-63
2024/02/13 15:35:51;;;;;;;76.22;47.53;;;;;;;;;;10255613;28;20077;-62
2024/02/13 15:51:39;;;;;;;;;;;;;;;;;;10229868;28;20202;-63
2024/02/13 15:56:46;;;;;;;47.80;35.25;;;;;;;;;;10253595;28;20409;-63
2024/02/13 16:01:47;;;;;;;39.03;29.55;;;;;;;;;;10256718;28;20088;-63
2024/02/13 16:06:46;;;;;;;61.67;42.00;;;;;;;;;;10254025;28;20116;-63
2024/02/13 16:11:45;;;;;;;17.67;15.18;;;;;;;;;;10260850;28;20060;-64
2024/02/13 16:16:44;;;;;;;21.17;18.88;;;;;;;;;;10249983;28;20076;-62
2024/02/13 16:21:43;;;;;;;14.32;12.82;;;;;;;;;;10256824;28;20081;-63
2024/02/13 16:26:41;;;;;;;51.13;30.77;;;;;;;;;;10256752;28;20088;-62
2024/02/13 16:31:41;;;;;;;58.92;38.20;;;;;;;;;;10254950;28;20065;-65
2024/02/13 16:36:39;;;;;;;23.52;21.25;;;;;;;;;;10254510;28;20498;-63
2024/02/13 16:41:38;;;;;;;20.50;16.73;;;;;;;;;;10250723;28;20487;-63
2024/02/13 16:46:36;;;;;;;22.70;19.38;;;;;;;;;;10256978;28;20077;-62
2024/02/13 16:51:37;;;;;;;19.10;17.05;;;;;;;;;;10256902;28;20065;-63
2024/02/13 16:56:36;;;;;;;33.10;28.60;;;;;;;;;;10249549;28;20434;-64
2024/02/13 17:01:34;;;;;;;28.05;25.05;;;;;;;;;;10257169;28;20080;-63
2024/02/13 17:06:32;;;;;;;42.45;31.00;;;;;;;;;;10248892;28;20574;-63
2024/02/13 17:11:33;;;;;;;64.07;44.97;;;;;;;;;;10255662;28;20068;-63
2024/02/13 17:16:33;;;;;;;30.45;24.02;;;;;;;;;;10254087;28;20080;-65
2024/02/13 17:21:31;;;;;;;32.25;28.75;;;;;;;;;;10259709;28;20088;-65
2024/02/13 17:26:30;;;;;;;27.73;21.30;;;;;;;;;;10254231;28;20073;-63
2024/02/13 17:31:29;;;;;;;64.72;46.72;;;;;;;;;;10240225;28;20095;-63
2024/02/13 17:36:27;;;;;;;44.20;34.25;;;;;;;;;;10242771;28;20068;-62
2024/02/13 17:41:29;;;;;;;17.88;16.17;;;;;;;;;;10257117;28;20143;-63
2024/02/13 17:46:27;;;;;;;22.23;18.92;;;;;;;;;;10254855;28;20073;-63
2024/02/13 17:51:27;;;;;;;19.67;17.70;;;;;;;;;;10251527;28;20065;-63
2024/02/13 17:56:25;;;;;;;19.08;17.30;;;;;;;;;;10248699;28;20124;-63
2024/02/13 18:01:23;;;;;;;16.23;14.57;;;;;;;;;;10249486;28;20504;-63
2024/02/13 18:06:22;;;;;;;14.13;12.82;;;;;;;;;;10256163;28;20080;-64
2024/02/13 18:11:21;;;;;;;16.45;14.85;;;;;;;;;;10254756;28;20073;-63
2024/02/13 18:16:20;;;;;;;13.10;11.95;;;;;;;;;;10248729;28;20522;-63
2024/02/13 18:21:18;;;;;;;24.73;21.25;;;;;;;;;;10246626;28;20345;-64
2024/02/13 18:26:22;;;;;;;16.90;15.30;;;;;;;;;;10244647;28;20084;-63
2024/02/13 18:31:21;;;;;;;23.88;21.52;;;;;;;;;;10248647;28;20088;-63
2024/02/13 18:36:19;;;;;;;19.42;17.55;;;;;;;;;;10242435;28;20505;-63
2024/02/13 18:41:17;;;;;;;16.40;14.95;;;;;;;;;;10255080;28;20077;-63
2024/02/13 18:46:17;;;;;;;20.08;18.08;;;;;;;;;;10271972;28;20065;-62
2024/02/13 18:51:16;;;;;;;25.38;23.00;;;;;;;;;;10264860;28;20533;-63
2024/02/13 18:56:16;;;;;;;25.42;23.08;;;;;;;;;;10267134;28;20502;-63
2024/02/13 19:01:14;;;;;;;19.65;17.73;;;;;;;;;;10265631;28;20080;-63
2024/02/13 19:06:14;;;;;;;18.05;16.27;;;;;;;;;;10257931;28;20065;-62
2024/02/13 19:11:12;;;;;;;12.98;11.77;;;;;;;;;;10258627;28;20080;-63
2024/02/13 19:16:10;;;;;;;10.20;9.30;;;;;;;;;;10252567;28;20490;-63
2024/02/13 19:21:10;;;;;;;11.77;10.73;;;;;;;;;;10254090;28;20064;-64
2024/02/13 19:26:10;;;;;;;12.68;11.52;;;;;;;;;;10247920;28;20143;-63
2024/02/13 19:31:17;;;;;;;9.45;8.50;;;;;;;;;;10253135;28;20073;-64
2024/02/13 19:36:20;;;;;;;8.43;7.57;;;;;;;;;;10249387;28;20072;-63
2024/02/13 19:41:22;;;;;;;9.93;8.57;;;;;;;;;;10257592;28;20069;-64
2024/02/13 19:46:23;;;;;;;9.30;8.40;;;;;;;;;;10254648;28;20069;-64
2024/02/13 19:51:42;;;;;;;8.65;7.85;;;;;;;;;;10252313;28;20081;-63
2024/02/13 19:57:05;;;;;;;9.05;8.25;;;;;;;;;;10254258;28;20079;-64
2024/02/13 20:02:06;;;;;;;6.72;6.22;;;;;;;;;;10252096;28;20091;-63
2024/02/13 20:07:06;;;;;;;6.05;5.55;;;;;;;;;;10250002;28;20076;-64
2024/02/13 20:12:13;;;;;;;6.75;6.15;;;;;;;;;;10252980;28;20078;-64
2024/02/13 20:17:14;;;;;;;6.32;5.82;;;;;;;;;;10253725;28;20069;-63
2024/02/13 20:22:17;;;;;;;6.25;5.75;;;;;;;;;;10251759;28;20085;-64
2024/02/13 20:27:17;;;;;;;6.03;5.53;;;;;;;;;;10249772;28;20069;-63
2024/02/13 20:32:18;;;;;;;6.15;5.63;;;;;;;;;;10250637;28;20072;-62
2024/02/13 20:37:19;;;;;;;8.57;7.10;;;;;;;;;;10252425;28;20499;-63
2024/02/13 20:42:20;;;;;;;5.60;5.20;;;;;;;;;;10251323;28;20505;-63
2024/02/13 20:47:22;;;;;;;7.68;6.97;;;;;;;;;;10249651;28;20073;-62
2024/02/13 20:52:23;;;;;;;6.25;5.65;;;;;;;;;;10248906;28;20060;-62
2024/02/13 20:57:23;;;;;;;7.72;7.05;;;;;;;;;;10253074;28;20069;-63
2024/02/13 21:02:28;;;;;;;5.57;5.07;;;;;;;;;;10249224;28;20498;-63
2024/02/13 21:07:27;;;;;;;6.68;6.18;;;;;;;;;;10248045;28;20103;-63
2024/02/13 21:12:30;;;;;;;7.15;6.45;;;;;;;;;;10250132;28;20073;-64
2024/02/13 21:17:30;;;;;;;7.60;6.90;;;;;;;;;;10249102;28;20061;-64
2024/02/13 21:28:33;;;;;;;6.65;6.05;;;;;;;;;;10160890;28;20073;-64
2024/02/13 21:33:36;;;;;;;7.07;6.40;;;;;;;;;;10228256;28;20085;-62
2024/02/13 21:38:38;;;;;;;9.70;8.70;;;;;;;;;;10245879;28;20076;-62
2024/02/13 21:43:41;;;;;;;6.95;6.25;;;;;;;;;;10243376;28;20099;-62
2024/02/13 21:48:42;;;;;;;11.60;10.60;;;;;;;;;;10247119;28;20533;-63
2024/02/13 21:53:41;;;;;;;7.03;6.32;;;;;;;;;;10244782;28;20061;-63
2024/02/13 21:58:52;;;;;;;7.22;6.68;;;;;;;;;;10244348;28;20076;-62
2024/02/13 22:03:50;;;;;;;11.10;9.23;;;;;;;;;;10247254;28;20065;-62
2024/02/13 22:08:49;;;;;;;8.13;7.32;;;;;;;;;;10243604;28;20503;-63
2024/02/13 22:13:47;;;;;;;7.65;6.68;;;;;;;;;;10247648;28;20069;-62
2024/02/13 22:18:47;;;;;;;6.25;5.75;;;;;;;;;;10252098;28;20060;-62
2024/02/13 22:23:45;;;;;;;5.75;4.85;;;;;;;;;;10247982;28;20505;-63
2024/02/13 22:28:44;;;;;;;4.57;4.07;;;;;;;;;;10246542;28;20478;-63
2024/02/13 22:33:42;;;;;;;5.75;3.95;;;;;;;;;;10243034;28;20065;-62
2024/02/13 22:38:43;;;;;;;3.83;3.53;;;;;;;;;;10244507;28;20068;-62
2024/02/13 22:43:42;;;;;;;4.47;4.07;;;;;;;;;;10248671;28;20529;-62
2024/02/13 22:48:40;;;;;;;4.40;4.00;;;;;;;;;;10247924;28;20168;-62
2024/02/13 22:53:40;;;;;;;4.47;4.10;;;;;;;;;;10247562;28;20084;-62
2024/02/13 22:58:39;;;;;;;5.82;5.00;;;;;;;;;;10246548;28;20083;-62
2024/02/13 23:03:38;;;;;;;6.38;5.32;;;;;;;;;;10249040;28;20087;-62
2024/02/13 23:08:37;;;;;;;6.82;6.15;;;;;;;;;;10246930;28;20101;-62
2024/02/13 23:13:35;;;;;;;4.97;4.50;;;;;;;;;;10247978;28;20073;-63
2024/02/13 23:18:44;;;;;;;4.00;3.65;;;;;;;;;;10247706;28;20112;-62
2024/02/13 23:23:43;;;;;;;4.28;3.88;;;;;;;;;;10246940;28;20091;-62
2024/02/13 23:28:42;;;;;;;5.72;4.75;;;;;;;;;;10255173;28;20077;-62
2024/02/13 23:33:54;;;;;;;10.38;8.05;;;;;;;;;;10252581;28;20065;-62
2024/02/13 23:38:53;;;;;;;3.63;3.33;;;;;;;;;;10256581;28;20490;-62
2024/02/13 23:43:51;;;;;;;4.72;3.08;;;;;;;;;;10253934;28;20064;-62
2024/02/13 23:48:49;;;;;;;3.67;3.38;;;;;;;;;;10252482;28;20491;-62
2024/02/13 23:53:49;;;;;;;2.80;2.60;;;;;;;;;;10253380;28;20064;-62
2024/02/13 23:58:51;;;;;;;3.25;2.95;;;;;;;;;;10249014;28;20099;-62
